createdAt,value
2023-02-26T00:02:10.928Z,1.25
2023-02-26T00:04:39.010Z,1.24
2023-02-26T00:07:07.495Z,1.23
2023-02-26T00:09:35.602Z,1.21
2023-02-26T00:12:03.946Z,1.21
2023-02-26T00:14:33.106Z,1.18
2023-02-26T00:21:18.320Z,1.14
2023-02-26T00:23:46.814Z,1.13
2023-02-26T00:26:17.041Z,1.16
2023-02-26T00:28:46.076Z,1.18
2023-02-26T00:31:15.482Z,1.21
2023-02-26T00:33:44.588Z,1.21
2023-02-26T00:36:29.950Z,1.21
2023-02-26T00:39:49.269Z,1.23
2023-02-26T00:42:18.076Z,1.22
2023-02-26T00:44:46.785Z,1.19
2023-02-26T00:47:37.053Z,1.14
2023-02-26T00:50:17.426Z,1.09
2023-02-26T00:52:58.312Z,1.04
2023-02-26T00:55:28.376Z,1.01
2023-02-26T00:57:57.827Z,0.98
2023-02-26T01:00:26.258Z,0.95
2023-02-26T01:02:54.706Z,0.91
2023-02-26T01:05:23.049Z,0.86
2023-02-26T01:08:03.398Z,0.83
2023-02-26T01:10:32.989Z,0.81
2023-02-26T01:13:01.402Z,0.76
2023-02-26T01:15:33.166Z,0.72
2023-02-26T01:18:22.255Z,0.70
2023-02-26T01:20:54.601Z,0.69
2023-02-26T01:23:26.381Z,0.67
2023-02-26T01:26:06.956Z,0.64
2023-02-26T01:28:35.511Z,0.62
2023-02-26T01:31:05.722Z,0.58
2023-02-26T01:33:41.727Z,0.55
2023-02-26T01:36:21.580Z,0.52
2023-02-26T01:39:17.957Z,0.51
2023-02-26T01:41:56.741Z,0.50
2023-02-26T01:44:51.000Z,0.50
2023-02-26T01:47:38.985Z,0.50
2023-02-26T01:50:16.051Z,0.51
2023-02-26T01:52:50.490Z,0.50
2023-02-26T01:55:21.352Z,0.48
2023-02-26T01:57:50.087Z,0.48
2023-02-26T02:00:19.107Z,0.49
2023-02-26T02:02:48.619Z,0.46
2023-02-26T02:05:22.110Z,0.46
2023-02-26T02:07:50.477Z,0.45
2023-02-26T02:10:18.764Z,0.47
2023-02-26T02:12:56.190Z,0.50
2023-02-26T02:15:27.200Z,0.49
2023-02-26T02:18:30.273Z,0.48
2023-02-26T02:21:13.701Z,0.51
2023-02-26T02:24:19.951Z,0.53
2023-02-26T02:27:04.331Z,0.53
2023-02-26T02:29:48.121Z,0.51
2023-02-26T02:32:24.353Z,0.49
2023-02-26T02:34:55.590Z,0.49
2023-02-26T02:37:34.701Z,0.50
2023-02-26T02:40:09.140Z,0.50
2023-02-26T02:42:43.918Z,0.54
2023-02-26T02:45:20.232Z,0.52
2023-02-26T02:47:51.148Z,0.52
2023-02-26T02:50:45.926Z,0.53
2023-02-26T02:53:15.505Z,0.53
2023-02-26T02:55:49.093Z,0.53
2023-02-26T02:58:22.664Z,0.53
2023-02-26T03:00:54.804Z,0.55
2023-02-26T03:03:39.157Z,0.58
2023-02-26T03:06:07.737Z,0.59
2023-02-26T03:08:41.484Z,0.62
2023-02-26T03:11:10.980Z,0.65
2023-02-26T03:13:40.451Z,0.65
2023-02-26T03:16:20.504Z,0.65
2023-02-26T03:19:07.588Z,0.64
2023-02-26T03:21:44.017Z,0.65
2023-02-26T03:24:31.100Z,0.65
2023-02-26T03:27:25.954Z,0.63
2023-02-26T03:30:19.436Z,0.64
2023-02-26T03:33:09.047Z,0.64
2023-02-26T03:35:47.726Z,0.63
2023-02-26T03:38:35.954Z,0.62
2023-02-26T03:41:10.606Z,0.60
2023-02-26T03:43:48.227Z,0.61
2023-02-26T03:46:21.034Z,0.59
2023-02-26T03:48:51.457Z,0.58
2023-02-26T03:51:21.847Z,0.58
2023-02-26T03:54:03.307Z,0.57
2023-02-26T03:56:42.303Z,0.58
2023-02-26T03:59:30.583Z,0.58
2023-02-26T04:02:38.680Z,0.55
2023-02-26T04:05:16.719Z,0.54
2023-02-26T04:07:46.024Z,0.52
2023-02-26T04:10:15.960Z,0.52
2023-02-26T04:12:44.244Z,0.51
2023-02-26T04:15:13.251Z,0.52
2023-02-26T04:17:41.954Z,0.53
2023-02-26T04:20:11.152Z,0.52
2023-02-26T04:22:39.450Z,0.54
2023-02-26T04:25:09.224Z,0.54
2023-02-26T04:27:38.251Z,0.54
2023-02-26T04:30:07.581Z,0.54
2023-02-26T04:32:36.180Z,0.54
2023-02-26T04:35:04.766Z,0.53
2023-02-26T04:37:34.146Z,0.53
2023-02-26T04:40:02.621Z,0.53
2023-02-26T04:42:34.019Z,0.55
2023-02-26T04:45:02.303Z,0.54
2023-02-26T04:47:31.166Z,0.53
2023-02-26T04:49:59.160Z,0.55
2023-02-26T04:52:29.997Z,0.59
2023-02-26T04:54:58.451Z,0.62
2023-02-26T04:57:27.021Z,0.62
2023-02-26T04:59:57.137Z,0.64
2023-02-26T05:02:29.034Z,0.64
2023-02-26T05:04:57.255Z,0.65
2023-02-26T05:07:25.680Z,0.66
2023-02-26T05:09:54.182Z,0.65
2023-02-26T05:12:22.602Z,0.67
2023-02-26T05:14:50.862Z,0.68
2023-02-26T05:17:19.054Z,0.67
2023-02-26T05:19:47.461Z,0.67
2023-02-26T05:22:21.670Z,0.68
2023-02-26T05:24:50.000Z,0.66
2023-02-26T05:27:18.401Z,0.67
2023-02-26T05:29:47.853Z,0.68
2023-02-26T05:32:16.905Z,0.67
2023-02-26T05:34:44.991Z,0.67
2023-02-26T05:37:13.313Z,0.68
2023-02-26T05:39:43.666Z,0.69
2023-02-26T05:42:11.698Z,0.69
2023-02-26T05:44:39.812Z,0.69
2023-02-26T05:47:08.793Z,0.70
2023-02-26T05:49:42.024Z,0.72
2023-02-26T05:52:10.556Z,0.73
2023-02-26T05:54:38.679Z,0.76
2023-02-26T05:57:09.560Z,0.77
2023-02-26T05:59:40.427Z,0.79
2023-02-26T06:02:08.533Z,0.84
2023-02-26T06:04:36.719Z,0.88
2023-02-26T06:07:05.298Z,0.91
2023-02-26T06:09:33.826Z,0.93
2023-02-26T06:12:05.407Z,0.96
2023-02-26T06:14:34.800Z,0.99
2023-02-26T06:17:04.460Z,1.02
2023-02-26T06:19:35.031Z,1.05
2023-02-26T06:22:03.060Z,1.07
2023-02-26T06:24:31.140Z,1.09
2023-02-26T06:26:59.184Z,1.12
2023-02-26T06:29:27.287Z,1.11
2023-02-26T06:31:57.745Z,1.13
2023-02-26T06:34:25.963Z,1.13
2023-02-26T06:36:54.032Z,1.14
2023-02-26T06:39:22.623Z,1.14
2023-02-26T06:41:50.825Z,1.17
2023-02-26T06:44:19.229Z,1.18
2023-02-26T06:46:47.370Z,1.17
2023-02-26T06:49:16.376Z,1.18
2023-02-26T06:51:44.828Z,1.20
2023-02-26T06:54:14.540Z,1.22
2023-02-26T06:56:43.321Z,1.23
2023-02-26T06:59:11.432Z,1.25
2023-02-26T07:01:39.970Z,1.27
2023-02-26T07:04:07.964Z,1.27
2023-02-26T07:06:39.312Z,1.29
2023-02-26T07:09:07.606Z,1.32
2023-02-26T07:11:35.642Z,1.35
2023-02-26T07:14:03.904Z,1.39
2023-02-26T07:16:32.044Z,1.42
2023-02-26T07:19:00.645Z,1.43
2023-02-26T07:21:29.148Z,1.47
2023-02-26T07:24:00.287Z,1.50
2023-02-26T07:26:32.469Z,1.53
2023-02-26T07:29:00.897Z,1.56
2023-02-26T07:31:29.389Z,1.60
2023-02-26T07:33:57.539Z,1.66
2023-02-26T07:36:25.879Z,1.71
2023-02-26T07:38:54.232Z,1.72
2023-02-26T07:41:22.598Z,1.74
2023-02-26T07:43:50.920Z,1.75
2023-02-26T07:46:19.075Z,1.78
2023-02-26T07:48:47.291Z,1.83
2023-02-26T07:51:15.554Z,1.88
2023-02-26T07:53:44.051Z,1.90
2023-02-26T07:56:13.034Z,1.92
2023-02-26T07:58:41.750Z,1.94
2023-02-26T08:01:09.904Z,1.99
2023-02-26T08:03:40.439Z,1.99
2023-02-26T08:06:09.302Z,2.03
2023-02-26T08:08:39.889Z,2.10
2023-02-26T08:11:08.400Z,2.16
2023-02-26T08:13:36.517Z,2.15
2023-02-26T08:16:06.574Z,2.20
2023-02-26T08:18:34.756Z,2.19
2023-02-26T08:21:02.971Z,2.20
2023-02-26T08:23:33.274Z,2.26
2023-02-26T08:26:05.595Z,2.26
2023-02-26T08:28:33.860Z,2.27
2023-02-26T08:31:05.195Z,2.31
2023-02-26T08:33:35.633Z,2.33
2023-02-26T08:36:04.487Z,2.35
2023-02-26T08:38:33.206Z,2.40
2023-02-26T08:41:01.379Z,2.49
2023-02-26T08:43:30.979Z,2.55
2023-02-26T08:46:00.254Z,2.59
2023-02-26T08:48:29.221Z,2.62
2023-02-26T08:50:57.664Z,2.65
2023-02-26T08:53:26.605Z,2.74
2023-02-26T08:55:54.732Z,2.80
2023-02-26T08:58:22.824Z,2.89
2023-02-26T09:00:51.333Z,2.95
2023-02-26T09:03:20.111Z,3.04
2023-02-26T09:05:48.248Z,3.05
2023-02-26T09:08:17.675Z,3.07
2023-02-26T09:10:46.138Z,3.10
2023-02-26T09:13:15.546Z,3.05
2023-02-26T09:15:43.648Z,3.07
2023-02-26T09:18:15.751Z,3.12
2023-02-26T09:20:44.734Z,3.09
2023-02-26T09:23:13.535Z,3.13
2023-02-26T09:25:41.991Z,3.15
2023-02-26T09:28:10.198Z,3.11
2023-02-26T09:30:40.115Z,3.15
2023-02-26T09:33:09.734Z,3.13
2023-02-26T09:35:38.379Z,3.15
2023-02-26T09:38:10.732Z,3.15
2023-02-26T09:41:01.774Z,3.13
2023-02-26T09:43:59.633Z,3.21
2023-02-26T09:46:47.204Z,3.29
2023-02-26T09:49:40.598Z,3.37
2023-02-26T09:52:33.834Z,3.40
2023-02-26T09:55:15.593Z,3.62
2023-02-26T09:57:45.533Z,3.89
2023-02-26T10:00:24.822Z,4.10
2023-02-26T10:03:11.385Z,4.15
2023-02-26T10:06:04.840Z,4.15
2023-02-26T10:09:02.920Z,4.18
2023-02-26T10:11:47.454Z,4.35
2023-02-26T10:14:24.480Z,4.45
2023-02-26T10:16:55.297Z,4.38
2023-02-26T10:19:27.686Z,4.53
2023-02-26T10:22:06.757Z,4.78
2023-02-26T10:24:47.255Z,4.97
2023-02-26T10:27:17.070Z,5.00
2023-02-26T10:29:46.314Z,5.23
2023-02-26T10:32:33.288Z,5.45
2023-02-26T10:35:09.907Z,5.69
2023-02-26T10:37:52.458Z,5.63
2023-02-26T10:40:43.748Z,5.41
2023-02-26T10:43:30.452Z,5.25
2023-02-26T10:46:37.352Z,5.23
2023-02-26T10:49:25.895Z,5.34
2023-02-26T10:51:55.134Z,5.43
2023-02-26T10:54:29.598Z,5.47
2023-02-26T10:56:57.712Z,5.53
2023-02-26T10:59:28.533Z,5.39
2023-02-26T11:01:56.916Z,5.30
2023-02-26T11:04:26.676Z,5.30
2023-02-26T11:06:57.636Z,5.38
2023-02-26T11:09:26.636Z,5.50
2023-02-26T11:11:58.197Z,5.57
2023-02-26T11:14:28.700Z,5.59
2023-02-26T11:17:38.780Z,5.58
2023-02-26T11:20:39.638Z,5.60
2023-02-26T11:23:11.481Z,5.55
2023-02-26T11:25:41.545Z,5.39
2023-02-26T11:28:32.866Z,5.33
2023-02-26T11:31:02.602Z,5.50
2023-02-26T11:33:39.348Z,5.56
2023-02-26T11:36:11.562Z,5.64
2023-02-26T11:38:40.657Z,5.61
2023-02-26T11:41:09.047Z,5.55
2023-02-26T11:43:44.406Z,5.59
2023-02-26T11:46:13.257Z,5.55
2023-02-26T11:48:45.390Z,5.55
2023-02-26T11:51:24.416Z,5.50
2023-02-26T11:53:57.755Z,5.43
2023-02-26T11:56:36.056Z,5.30
2023-02-26T11:59:21.432Z,5.26
2023-02-26T12:01:53.230Z,5.25
2023-02-26T12:04:23.120Z,5.22
2023-02-26T12:06:54.682Z,5.25
2023-02-26T12:09:23.236Z,5.20
2023-02-26T12:12:16.711Z,5.19
2023-02-26T12:15:08.335Z,5.19
2023-02-26T12:18:06.671Z,5.19
2023-02-26T12:21:05.619Z,5.08
2023-02-26T12:23:49.962Z,4.97
2023-02-26T12:26:29.014Z,4.93
2023-02-26T12:29:29.426Z,4.97
2023-02-26T12:32:39.116Z,4.95
2023-02-26T12:35:34.764Z,4.75
2023-02-26T12:38:43.312Z,4.65
2023-02-26T12:41:23.784Z,4.67
2023-02-26T12:43:55.836Z,4.73
2023-02-26T12:46:36.041Z,4.79
2023-02-26T12:49:04.388Z,4.80
2023-02-26T12:51:55.812Z,4.80
2023-02-26T12:54:36.387Z,4.86
2023-02-26T12:57:13.378Z,4.89
2023-02-26T13:00:13.078Z,4.95
2023-02-26T13:03:02.106Z,4.96
2023-02-26T13:05:59.436Z,4.96
2023-02-26T13:08:53.827Z,5.02
2023-02-26T13:11:38.215Z,5.07
2023-02-26T13:14:21.843Z,5.05
2023-02-26T13:16:54.881Z,4.99
2023-02-26T13:19:29.506Z,5.00
2023-02-26T13:22:00.763Z,5.09
2023-02-26T13:24:43.050Z,5.23
2023-02-26T13:27:12.108Z,5.26
2023-02-26T13:29:47.903Z,5.29
2023-02-26T13:32:46.926Z,5.16
2023-02-26T13:35:25.542Z,5.06
2023-02-26T13:37:55.795Z,5.06
2023-02-26T13:40:23.696Z,5.09
2023-02-26T13:43:17.867Z,5.15
2023-02-26T13:46:17.463Z,5.19
2023-02-26T13:48:50.086Z,5.20
2023-02-26T13:51:37.949Z,5.15
2023-02-26T13:54:29.383Z,5.14
2023-02-26T13:57:21.419Z,5.18
2023-02-26T14:00:01.356Z,5.21
2023-02-26T14:02:44.804Z,5.32
2023-02-26T14:05:48.326Z,5.48
2023-02-26T14:08:26.552Z,5.56
2023-02-26T14:11:05.252Z,5.57
2023-02-26T14:13:40.482Z,5.49
2023-02-26T14:16:12.665Z,5.49
2023-02-26T14:18:50.324Z,5.56
2023-02-26T14:22:18.393Z,5.60
2023-02-26T14:25:00.918Z,5.63
2023-02-26T14:27:40.679Z,5.58
2023-02-26T14:30:09.311Z,5.59
2023-02-26T14:33:01.523Z,5.70
2023-02-26T14:35:40.690Z,5.85
2023-02-26T14:38:13.087Z,5.94
2023-02-26T14:40:55.648Z,6.02
2023-02-26T14:43:46.410Z,6.08
2023-02-26T14:46:14.939Z,5.99
2023-02-26T14:48:42.948Z,5.81
2023-02-26T14:51:29.849Z,5.55
2023-02-26T14:54:14.469Z,5.31
2023-02-26T14:56:52.497Z,5.14
2023-02-26T14:59:26.724Z,4.99
2023-02-26T15:02:00.931Z,4.91
2023-02-26T15:05:03.499Z,4.85
2023-02-26T15:07:44.566Z,4.76
2023-02-26T15:10:25.394Z,4.68
2023-02-26T15:13:22.122Z,4.59
2023-02-26T15:16:12.062Z,4.48
2023-02-26T15:18:54.520Z,4.37
2023-02-26T15:21:32.584Z,4.30
2023-02-26T15:24:00.884Z,4.21
2023-02-26T15:26:36.422Z,4.13
2023-02-26T15:29:08.497Z,4.08
2023-02-26T15:31:42.673Z,4.06
2023-02-26T15:34:15.737Z,4.03
2023-02-26T15:36:51.440Z,3.99
2023-02-26T15:39:23.509Z,3.96
2023-02-26T15:41:53.008Z,3.95
2023-02-26T15:44:27.418Z,3.92
2023-02-26T15:47:04.657Z,3.91
2023-02-26T15:49:38.538Z,3.89
2023-02-26T15:52:08.096Z,3.87
2023-02-26T15:54:45.013Z,3.85
2023-02-26T15:57:15.719Z,3.84
2023-02-26T15:59:45.857Z,3.84
2023-02-26T16:02:20.405Z,3.84
2023-02-26T16:04:48.951Z,3.83
2023-02-26T16:07:17.067Z,3.83
2023-02-26T16:09:46.852Z,3.81
2023-02-26T16:12:25.874Z,3.81
2023-02-26T16:14:59.278Z,3.79
2023-02-26T16:17:32.563Z,3.76
2023-02-26T16:20:03.593Z,3.75
2023-02-26T16:22:40.668Z,3.72
2023-02-26T16:25:19.498Z,3.71
2023-02-26T16:28:03.777Z,3.72
2023-02-26T16:30:35.965Z,3.70
2023-02-26T16:33:09.881Z,3.69
2023-02-26T16:35:42.171Z,3.68
2023-02-26T16:38:24.311Z,3.68
2023-02-26T16:41:06.144Z,3.66
2023-02-26T16:43:49.540Z,3.64
2023-02-26T16:46:42.941Z,3.64
2023-02-26T16:49:34.018Z,3.62
2023-02-26T16:52:02.337Z,3.61
2023-02-26T16:54:38.670Z,3.60
2023-02-26T16:57:20.622Z,3.60
2023-02-26T16:59:57.766Z,3.59
2023-02-26T17:02:32.020Z,3.58
2023-02-26T17:05:02.495Z,3.57
2023-02-26T17:07:32.187Z,3.56
2023-02-26T17:10:13.936Z,3.57
2023-02-26T17:12:51.094Z,3.55
2023-02-26T17:15:31.577Z,3.54
2023-02-26T17:18:03.277Z,3.56
2023-02-26T17:20:33.098Z,3.57
2023-02-26T17:23:30.718Z,3.57
2023-02-26T17:26:02.489Z,3.57
2023-02-26T17:28:37.000Z,3.58
2023-02-26T17:31:05.532Z,3.58
2023-02-26T17:33:34.123Z,3.57
2023-02-26T17:36:05.989Z,3.58
2023-02-26T17:38:34.157Z,3.57
2023-02-26T17:41:02.352Z,3.56
2023-02-26T17:43:33.194Z,3.52
2023-02-26T17:46:02.033Z,3.50
2023-02-26T17:48:31.130Z,3.48
2023-02-26T17:51:01.336Z,3.47
2023-02-26T17:53:40.953Z,3.47
2023-02-26T17:56:27.034Z,3.46
2023-02-26T17:58:59.326Z,3.44
2023-02-26T18:01:29.158Z,3.43
2023-02-26T18:04:01.659Z,3.41
2023-02-26T18:06:34.730Z,3.39
2023-02-26T18:09:05.943Z,3.38
2023-02-26T18:11:35.667Z,3.36
2023-02-26T18:14:05.820Z,3.35
2023-02-26T18:16:40.208Z,3.33
2023-02-26T18:19:09.209Z,3.31
2023-02-26T18:21:37.469Z,3.29
2023-02-26T18:24:05.917Z,3.27
2023-02-26T18:26:34.030Z,3.22
2023-02-26T18:29:02.228Z,3.20
2023-02-26T18:31:35.231Z,3.20
2023-02-26T18:34:09.368Z,3.18
2023-02-26T18:36:40.429Z,3.13
2023-02-26T18:39:13.355Z,3.12
2023-02-26T18:41:42.582Z,3.10
2023-02-26T18:44:11.313Z,3.10
2023-02-26T18:46:41.941Z,3.10
2023-02-26T18:49:17.122Z,3.08
2023-02-26T18:51:48.159Z,3.05
2023-02-26T18:54:16.324Z,3.02
2023-02-26T18:56:47.865Z,3.00
2023-02-26T18:59:15.991Z,2.99
2023-02-26T19:01:48.110Z,2.96
2023-02-26T19:04:16.756Z,2.95
2023-02-26T19:06:50.514Z,2.94
2023-02-26T19:09:18.766Z,2.93
2023-02-26T19:11:46.798Z,2.92
2023-02-26T19:14:15.692Z,2.90
2023-02-26T19:16:44.507Z,2.91
2023-02-26T19:19:19.203Z,2.89
2023-02-26T19:21:47.707Z,2.88
2023-02-26T19:24:17.631Z,2.88
2023-02-26T19:26:45.808Z,2.84
2023-02-26T19:29:15.735Z,2.83
2023-02-26T19:31:44.287Z,2.82
2023-02-26T19:34:13.104Z,2.81
2023-02-26T19:36:48.189Z,2.79
2023-02-26T19:39:16.964Z,2.78
2023-02-26T19:41:46.151Z,2.75
2023-02-26T19:44:15.888Z,2.73
2023-02-26T19:46:44.066Z,2.70
2023-02-26T19:49:13.076Z,2.66
2023-02-26T19:51:41.302Z,2.66
2023-02-26T19:54:09.668Z,2.65
2023-02-26T19:56:37.712Z,2.64
2023-02-26T19:59:09.040Z,2.62
2023-02-26T20:01:37.606Z,2.61
2023-02-26T20:04:07.855Z,2.59
2023-02-26T20:06:38.241Z,2.59
2023-02-26T20:09:08.971Z,2.58
2023-02-26T20:11:38.252Z,2.55
2023-02-26T20:14:06.881Z,2.53
2023-02-26T20:16:36.190Z,2.51
2023-02-26T20:19:04.273Z,2.49
2023-02-26T20:21:34.189Z,2.47
2023-02-26T20:24:02.549Z,2.45
2023-02-26T20:26:32.716Z,2.42
2023-02-26T20:29:01.165Z,2.39
2023-02-26T20:31:30.814Z,2.36
2023-02-26T20:34:06.879Z,2.33
2023-02-26T20:36:35.600Z,2.29
2023-02-26T20:39:03.871Z,2.27
2023-02-26T20:41:31.876Z,2.25
2023-02-26T20:44:00.154Z,2.23
2023-02-26T20:46:29.989Z,2.20
2023-02-26T20:49:03.254Z,2.16
2023-02-26T20:51:31.890Z,2.12
2023-02-26T20:53:59.936Z,2.08
2023-02-26T20:56:28.541Z,2.04
2023-02-26T20:58:57.439Z,2.00
2023-02-26T21:01:26.255Z,1.95
2023-02-26T21:03:54.613Z,1.92
2023-02-26T21:06:23.167Z,1.89
2023-02-26T21:08:51.760Z,1.86
2023-02-26T21:11:20.762Z,1.86
2023-02-26T21:13:53.808Z,1.89
2023-02-26T21:16:22.081Z,1.91
2023-02-26T21:18:50.157Z,1.92
2023-02-26T21:21:19.329Z,1.95
2023-02-26T21:23:47.427Z,1.99
2023-02-26T21:26:15.993Z,2.02
2023-02-26T21:28:48.470Z,2.03
2023-02-26T21:31:22.219Z,2.06
2023-02-26T21:33:50.543Z,2.05
2023-02-26T21:36:18.666Z,2.04
2023-02-26T21:38:48.142Z,2.02
2023-02-26T21:41:16.700Z,2.03
2023-02-26T21:43:47.948Z,2.05
2023-02-26T21:46:16.298Z,2.06
2023-02-26T21:48:46.388Z,2.06
2023-02-26T21:51:15.974Z,2.07
2023-02-26T21:53:47.448Z,2.07
2023-02-26T21:56:15.939Z,2.06
2023-02-26T21:58:44.315Z,2.06
2023-02-26T22:01:12.954Z,2.07
2023-02-26T22:03:41.256Z,2.07
2023-02-26T22:06:09.949Z,2.08
2023-02-26T22:08:38.120Z,2.08
2023-02-26T22:11:11.806Z,2.07
2023-02-26T22:13:40.460Z,2.07
2023-02-26T22:16:08.531Z,2.08
2023-02-26T22:18:37.297Z,2.09
2023-02-26T22:21:06.367Z,2.10
2023-02-26T22:23:34.491Z,2.10
2023-02-26T22:26:02.614Z,2.09
2023-02-26T22:28:30.923Z,2.09
2023-02-26T22:30:59.557Z,2.08
2023-02-26T22:33:27.932Z,2.07
2023-02-26T22:35:57.841Z,2.05
2023-02-26T22:38:26.728Z,2.01
2023-02-26T22:40:54.762Z,1.95
2023-02-26T22:43:23.384Z,1.88
2023-02-26T22:45:53.389Z,1.81
2023-02-26T22:48:22.434Z,1.74
2023-02-26T22:50:50.972Z,1.69
2023-02-26T22:53:19.268Z,1.66
2023-02-26T22:55:47.648Z,1.65
2023-02-26T22:58:18.436Z,1.63
2023-02-26T23:00:46.520Z,1.63
2023-02-26T23:03:16.986Z,1.62
2023-02-26T23:05:45.819Z,1.61
2023-02-26T23:08:13.941Z,1.60
2023-02-26T23:10:42.516Z,1.59
2023-02-26T23:13:11.684Z,1.57
2023-02-26T23:15:39.833Z,1.53
2023-02-26T23:18:12.993Z,1.49
2023-02-26T23:20:54.697Z,1.44
2023-02-26T23:23:30.692Z,1.39
2023-02-26T23:25:58.711Z,1.35
2023-02-26T23:28:27.278Z,1.30
2023-02-26T23:30:55.572Z,1.25
2023-02-26T23:33:23.821Z,1.20
2023-02-26T23:35:52.681Z,1.14
2023-02-26T23:38:22.391Z,1.07
2023-02-26T23:40:51.097Z,1.00
2023-02-26T23:43:19.942Z,0.93
2023-02-26T23:45:49.404Z,0.87
2023-02-26T23:48:17.521Z,0.82
2023-02-26T23:50:48.263Z,0.80
2023-02-26T23:53:16.909Z,0.77
2023-02-26T23:55:46.243Z,0.75
2023-02-26T23:58:15.111Z,0.70
